sensor_id;sensor_type;location;lat;lon;timestamp;P1;durP1;ratioP1;P2;durP2;ratioP2
1460;SDS011;724;49.910;12.530;2022-07-22T00:02:08;0.30;;;0.20;;
1460;SDS011;724;49.910;12.530;2022-07-22T00:04:35;0.20;;;0.10;;
1460;SDS011;724;49.910;12.530;2022-07-22T00:07:02;0.20;;;0.10;;
1460;SDS011;724;49.910;12.530;2022-07-22T00:09:30;0.30;;;0.20;;
1460;SDS011;724;49.910;12.530;2022-07-22T00:11:57;0.20;;;0.10;;
1460;SDS011;724;49.910;12.530;2022-07-22T00:14:24;0.30;;;0.20;;
1460;SDS011;724;49.910;12.530;2022-07-22T00:16:50;0.30;;;0.20;;
1460;SDS011;724;49.910;12.530;2022-07-22T00:19:17;0.20;;;0.10;;
1460;SDS011;724;49.910;12.530;2022-07-22T00:21:44;0.20;;;0.10;;
1460;SDS011;724;49.910;12.530;2022-07-22T00:24:11;0.30;;;0.20;;
1460;SDS011;724;49.910;12.530;2022-07-22T00:26:39;0.30;;;0.20;;
1460;SDS011;724;49.910;12.530;2022-07-22T00:29:05;0.20;;;0.10;;
1460;SDS011;724;49.910;12.530;2022-07-22T00:31:32;0.30;;;0.20;;
1460;SDS011;724;49.910;12.530;2022-07-22T00:33:59;0.20;;;0.10;;
1460;SDS011;724;49.910;12.530;2022-07-22T00:36:26;0.20;;;0.10;;
1460;SDS011;724;49.910;12.530;2022-07-22T00:38:53;0.20;;;0.10;;
1460;SDS011;724;49.910;12.530;2022-07-22T00:41:20;0.20;;;0.10;;
1460;SDS011;724;49.910;12.530;2022-07-22T00:43:55;0.30;;;0.20;;
1460;SDS011;724;49.910;12.530;2022-07-22T00:46:24;0.30;;;0.20;;
1460;SDS011;724;49.910;12.530;2022-07-22T00:48:52;0.40;;;0.30;;
1460;SDS011;724;49.910;12.530;2022-07-22T00:51:20;0.40;;;0.30;;
1460;SDS011;724;49.910;12.530;2022-07-22T00:53:47;0.30;;;0.20;;
1460;SDS011;724;49.910;12.530;2022-07-22T00:56:14;0.30;;;0.20;;
1460;SDS011;724;49.910;12.530;2022-07-22T00:58:42;0.30;;;0.20;;
1460;SDS011;724;49.910;12.530;2022-07-22T01:01:11;0.30;;;0.20;;
1460;SDS011;724;49.910;12.530;2022-07-22T01:03:38;0.30;;;0.20;;
1460;SDS011;724;49.910;12.530;2022-07-22T01:06:06;0.30;;;0.20;;
1460;SDS011;724;49.910;12.530;2022-07-22T01:08:33;0.40;;;0.30;;
1460;SDS011;724;49.910;12.530;2022-07-22T01:11:05;0.30;;;0.20;;
1460;SDS011;724;49.910;12.530;2022-07-22T01:13:33;0.40;;;0.30;;
1460;SDS011;724;49.910;12.530;2022-07-22T01:15:59;0.30;;;0.20;;
1460;SDS011;724;49.910;12.530;2022-07-22T01:18:28;0.40;;;0.30;;
1460;SDS011;724;49.910;12.530;2022-07-22T01:20:56;0.30;;;0.20;;
1460;SDS011;724;49.910;12.530;2022-07-22T01:23:23;0.40;;;0.30;;
1460;SDS011;724;49.910;12.530;2022-07-22T01:25:49;0.30;;;0.20;;
1460;SDS011;724;49.910;12.530;2022-07-22T01:28:16;0.30;;;0.20;;
1460;SDS011;724;49.910;12.530;2022-07-22T01:30:43;0.30;;;0.20;;
1460;SDS011;724;49.910;12.530;2022-07-22T01:33:09;0.30;;;0.20;;
1460;SDS011;724;49.910;12.530;2022-07-22T01:35:36;0.40;;;0.30;;
1460;SDS011;724;49.910;12.530;2022-07-22T01:38:06;0.40;;;0.30;;
1460;SDS011;724;49.910;12.530;2022-07-22T01:40:33;0.40;;;0.30;;
1460;SDS011;724;49.910;12.530;2022-07-22T01:42:59;0.40;;;0.30;;
1460;SDS011;724;49.910;12.530;2022-07-22T01:45:27;0.40;;;0.30;;
1460;SDS011;724;49.910;12.530;2022-07-22T01:48:10;0.40;;;0.30;;
1460;SDS011;724;49.910;12.530;2022-07-22T01:50:44;0.40;;;0.30;;
1460;SDS011;724;49.910;12.530;2022-07-22T01:53:12;0.30;;;0.20;;
1460;SDS011;724;49.910;12.530;2022-07-22T01:55:40;0.40;;;0.30;;
1460;SDS011;724;49.910;12.530;2022-07-22T01:58:07;0.40;;;0.30;;
1460;SDS011;724;49.910;12.530;2022-07-22T02:00:34;0.40;;;0.30;;
1460;SDS011;724;49.910;12.530;2022-07-22T02:03:01;0.50;;;0.40;;
1460;SDS011;724;49.910;12.530;2022-07-22T02:05:28;0.50;;;0.40;;
1460;SDS011;724;49.910;12.530;2022-07-22T02:07:58;0.50;;;0.40;;
1460;SDS011;724;49.910;12.530;2022-07-22T02:10:28;0.40;;;0.30;;
1460;SDS011;724;49.910;12.530;2022-07-22T02:12:55;0.40;;;0.30;;
1460;SDS011;724;49.910;12.530;2022-07-22T02:15:22;0.30;;;0.20;;
1460;SDS011;724;49.910;12.530;2022-07-22T02:17:49;0.30;;;0.20;;
1460;SDS011;724;49.910;12.530;2022-07-22T02:20:16;0.30;;;0.20;;
1460;SDS011;724;49.910;12.530;2022-07-22T02:22:43;0.30;;;0.20;;
1460;SDS011;724;49.910;12.530;2022-07-22T02:25:09;0.40;;;0.30;;
1460;SDS011;724;49.910;12.530;2022-07-22T02:27:38;0.30;;;0.20;;
1460;SDS011;724;49.910;12.530;2022-07-22T02:30:06;0.40;;;0.30;;
1460;SDS011;724;49.910;12.530;2022-07-22T02:32:33;0.40;;;0.30;;
1460;SDS011;724;49.910;12.530;2022-07-22T02:35:00;0.33;;;0.23;;
1460;SDS011;724;49.910;12.530;2022-07-22T02:37:27;0.30;;;0.20;;
1460;SDS011;724;49.910;12.530;2022-07-22T02:39:54;0.40;;;0.30;;
1460;SDS011;724;49.910;12.530;2022-07-22T02:42:20;0.40;;;0.30;;
1460;SDS011;724;49.910;12.530;2022-07-22T02:44:48;0.50;;;0.40;;
1460;SDS011;724;49.910;12.530;2022-07-22T02:47:15;0.40;;;0.30;;
1460;SDS011;724;49.910;12.530;2022-07-22T02:49:42;0.40;;;0.30;;
1460;SDS011;724;49.910;12.530;2022-07-22T02:52:08;0.40;;;0.30;;
1460;SDS011;724;49.910;12.530;2022-07-22T02:54:35;0.40;;;0.30;;
1460;SDS011;724;49.910;12.530;2022-07-22T02:57:02;0.40;;;0.30;;
1460;SDS011;724;49.910;12.530;2022-07-22T02:59:29;0.30;;;0.20;;
1460;SDS011;724;49.910;12.530;2022-07-22T03:01:57;0.40;;;0.30;;
1460;SDS011;724;49.910;12.530;2022-07-22T03:04:23;0.40;;;0.30;;
1460;SDS011;724;49.910;12.530;2022-07-22T03:06:50;0.30;;;0.20;;
1460;SDS011;724;49.910;12.530;2022-07-22T03:09:17;0.30;;;0.20;;
1460;SDS011;724;49.910;12.530;2022-07-22T03:11:44;0.30;;;0.20;;
1460;SDS011;724;49.910;12.530;2022-07-22T03:14:11;0.30;;;0.20;;
1460;SDS011;724;49.910;12.530;2022-07-22T03:16:37;0.37;;;0.27;;
1460;SDS011;724;49.910;12.530;2022-07-22T03:19:05;0.30;;;0.20;;
1460;SDS011;724;49.910;12.530;2022-07-22T03:21:32;0.30;;;0.20;;
1460;SDS011;724;49.910;12.530;2022-07-22T03:23:59;0.30;;;0.20;;
1460;SDS011;724;49.910;12.530;2022-07-22T03:26:25;0.40;;;0.30;;
1460;SDS011;724;49.910;12.530;2022-07-22T03:28:52;0.40;;;0.30;;
1460;SDS011;724;49.910;12.530;2022-07-22T03:31:19;0.30;;;0.20;;
1460;SDS011;724;49.910;12.530;2022-07-22T03:33:45;0.30;;;0.20;;
1460;SDS011;724;49.910;12.530;2022-07-22T03:36:13;0.30;;;0.20;;
1460;SDS011;724;49.910;12.530;2022-07-22T03:38:40;0.30;;;0.20;;
1460;SDS011;724;49.910;12.530;2022-07-22T03:41:07;0.30;;;0.20;;
1460;SDS011;724;49.910;12.530;2022-07-22T03:43:34;0.30;;;0.20;;
1460;SDS011;724;49.910;12.530;2022-07-22T03:46:00;0.40;;;0.30;;
1460;SDS011;724;49.910;12.530;2022-07-22T03:48:27;0.33;;;0.23;;
1460;SDS011;724;49.910;12.530;2022-07-22T03:50:54;0.40;;;0.30;;
1460;SDS011;724;49.910;12.530;2022-07-22T03:53:22;0.37;;;0.27;;
1460;SDS011;724;49.910;12.530;2022-07-22T03:55:48;0.40;;;0.30;;
1460;SDS011;724;49.910;12.530;2022-07-22T03:58:15;0.30;;;0.20;;
1460;SDS011;724;49.910;12.530;2022-07-22T04:00:43;0.30;;;0.20;;
1460;SDS011;724;49.910;12.530;2022-07-22T04:03:10;0.40;;;0.30;;
1460;SDS011;724;49.910;12.530;2022-07-22T04:05:36;0.40;;;0.30;;
1460;SDS011;724;49.910;12.530;2022-07-22T04:08:03;0.40;;;0.30;;
1460;SDS011;724;49.910;12.530;2022-07-22T04:10:31;0.43;;;0.33;;
1460;SDS011;724;49.910;12.530;2022-07-22T04:12:58;0.60;;;0.50;;
1460;SDS011;724;49.910;12.530;2022-07-22T04:15:25;0.50;;;0.40;;
1460;SDS011;724;49.910;12.530;2022-07-22T04:17:52;0.60;;;0.50;;
1460;SDS011;724;49.910;12.530;2022-07-22T04:20:22;0.50;;;0.40;;
1460;SDS011;724;49.910;12.530;2022-07-22T04:22:50;0.53;;;0.43;;
1460;SDS011;724;49.910;12.530;2022-07-22T04:25:21;0.50;;;0.40;;
1460;SDS011;724;49.910;12.530;2022-07-22T04:27:50;0.63;;;0.53;;
1460;SDS011;724;49.910;12.530;2022-07-22T04:30:17;0.53;;;0.43;;
1460;SDS011;724;49.910;12.530;2022-07-22T04:32:44;0.63;;;0.53;;
1460;SDS011;724;49.910;12.530;2022-07-22T04:35:11;0.60;;;0.50;;
1460;SDS011;724;49.910;12.530;2022-07-22T04:37:37;0.60;;;0.50;;
1460;SDS011;724;49.910;12.530;2022-07-22T04:40:05;0.60;;;0.50;;
1460;SDS011;724;49.910;12.530;2022-07-22T04:42:32;0.60;;;0.50;;
1460;SDS011;724;49.910;12.530;2022-07-22T04:45:00;0.60;;;0.50;;
1460;SDS011;724;49.910;12.530;2022-07-22T04:47:27;0.60;;;0.50;;
1460;SDS011;724;49.910;12.530;2022-07-22T04:49:54;0.70;;;0.60;;
1460;SDS011;724;49.910;12.530;2022-07-22T04:52:20;0.70;;;0.60;;
1460;SDS011;724;49.910;12.530;2022-07-22T04:54:47;0.80;;;0.70;;
1460;SDS011;724;49.910;12.530;2022-07-22T04:57:14;0.80;;;0.70;;
1460;SDS011;724;49.910;12.530;2022-07-22T04:59:40;0.90;;;0.80;;
1460;SDS011;724;49.910;12.530;2022-07-22T05:02:08;1.00;;;0.90;;
1460;SDS011;724;49.910;12.530;2022-07-22T05:04:35;1.10;;;1.00;;
1460;SDS011;724;49.910;12.530;2022-07-22T05:07:02;1.20;;;1.10;;
1460;SDS011;724;49.910;12.530;2022-07-22T05:09:29;1.30;;;1.20;;
1460;SDS011;724;49.910;12.530;2022-07-22T05:11:56;1.50;;;1.40;;
1460;SDS011;724;49.910;12.530;2022-07-22T05:14:22;1.60;;;1.50;;
1460;SDS011;724;49.910;12.530;2022-07-22T05:16:49;1.60;;;1.50;;
1460;SDS011;724;49.910;12.530;2022-07-22T05:19:17;1.70;;;1.60;;
1460;SDS011;724;49.910;12.530;2022-07-22T05:21:44;1.90;;;1.80;;
1460;SDS011;724;49.910;12.530;2022-07-22T05:24:11;2.40;;;2.20;;
1460;SDS011;724;49.910;12.530;2022-07-22T05:26:38;2.50;;;2.30;;
1460;SDS011;724;49.910;12.530;2022-07-22T05:29:05;2.50;;;2.30;;
1460;SDS011;724;49.910;12.530;2022-07-22T05:31:32;2.60;;;2.40;;
1460;SDS011;724;49.910;12.530;2022-07-22T05:33:58;2.83;;;2.63;;
1460;SDS011;724;49.910;12.530;2022-07-22T05:36:26;3.17;;;2.97;;
1460;SDS011;724;49.910;12.530;2022-07-22T05:38:53;3.50;;;3.30;;
1460;SDS011;724;49.910;12.530;2022-07-22T05:41:20;4.43;;;4.13;;
1460;SDS011;724;49.910;12.530;2022-07-22T05:43:46;4.50;;;4.20;;
1460;SDS011;724;49.910;12.530;2022-07-22T05:46:13;4.90;;;4.60;;
1460;SDS011;724;49.910;12.530;2022-07-22T05:48:40;5.30;;;5.00;;
1460;SDS011;724;49.910;12.530;2022-07-22T05:51:10;5.40;;;5.10;;
1460;SDS011;724;49.910;12.530;2022-07-22T05:53:39;5.80;;;5.50;;
1460;SDS011;724;49.910;12.530;2022-07-22T05:56:07;5.87;;;5.57;;
1460;SDS011;724;49.910;12.530;2022-07-22T05:58:36;5.93;;;5.63;;
1460;SDS011;724;49.910;12.530;2022-07-22T06:01:02;5.90;;;5.60;;
1460;SDS011;724;49.910;12.530;2022-07-22T06:03:29;6.50;;;6.10;;
1460;SDS011;724;49.910;12.530;2022-07-22T06:05:56;6.90;;;6.50;;
1460;SDS011;724;49.910;12.530;2022-07-22T06:08:23;6.63;;;6.23;;
1460;SDS011;724;49.910;12.530;2022-07-22T06:10:51;7.10;;;6.70;;
1460;SDS011;724;49.910;12.530;2022-07-22T06:13:18;7.00;;;6.60;;
1460;SDS011;724;49.910;12.530;2022-07-22T06:15:45;7.70;;;7.30;;
1460;SDS011;724;49.910;12.530;2022-07-22T06:18:11;7.30;;;6.90;;
1460;SDS011;724;49.910;12.530;2022-07-22T06:20:38;7.80;;;7.40;;
1460;SDS011;724;49.910;12.530;2022-07-22T06:23:05;7.83;;;7.43;;
1460;SDS011;724;49.910;12.530;2022-07-22T06:25:32;8.20;;;7.80;;
1460;SDS011;724;49.910;12.530;2022-07-22T06:28:00;8.27;;;7.87;;
1460;SDS011;724;49.910;12.530;2022-07-22T06:30:27;8.00;;;7.60;;
1460;SDS011;724;49.910;12.530;2022-07-22T06:32:54;7.80;;;7.40;;
1460;SDS011;724;49.910;12.530;2022-07-22T06:35:21;8.13;;;7.73;;
1460;SDS011;724;49.910;12.530;2022-07-22T06:37:49;8.00;;;7.60;;
1460;SDS011;724;49.910;12.530;2022-07-22T06:40:16;8.17;;;7.77;;
1460;SDS011;724;49.910;12.530;2022-07-22T06:42:43;8.20;;;7.80;;
1460;SDS011;724;49.910;12.530;2022-07-22T06:45:11;7.90;;;7.50;;
1460;SDS011;724;49.910;12.530;2022-07-22T06:47:38;8.10;;;7.70;;
1460;SDS011;724;49.910;12.530;2022-07-22T06:50:05;8.20;;;7.80;;
1460;SDS011;724;49.910;12.530;2022-07-22T06:52:37;8.60;;;8.10;;
1460;SDS011;724;49.910;12.530;2022-07-22T06:55:05;8.10;;;7.70;;
1460;SDS011;724;49.910;12.530;2022-07-22T06:57:32;8.37;;;7.93;;
1460;SDS011;724;49.910;12.530;2022-07-22T06:59:59;8.03;;;7.63;;
1460;SDS011;724;49.910;12.530;2022-07-22T07:02:27;8.37;;;7.93;;
1460;SDS011;724;49.910;12.530;2022-07-22T07:04:54;8.20;;;7.80;;
1460;SDS011;724;49.910;12.530;2022-07-22T07:07:20;8.50;;;8.00;;
1460;SDS011;724;49.910;12.530;2022-07-22T07:09:47;8.43;;;7.97;;
1460;SDS011;724;49.910;12.530;2022-07-22T07:12:14;8.57;;;8.07;;
1460;SDS011;724;49.910;12.530;2022-07-22T07:14:40;8.73;;;8.23;;
1460;SDS011;724;49.910;12.530;2022-07-22T07:17:07;8.70;;;8.20;;
1460;SDS011;724;49.910;12.530;2022-07-22T07:19:35;8.67;;;8.17;;
1460;SDS011;724;49.910;12.530;2022-07-22T07:22:02;8.27;;;7.87;;
1460;SDS011;724;49.910;12.530;2022-07-22T07:24:29;8.80;;;8.30;;
1460;SDS011;724;49.910;12.530;2022-07-22T07:26:55;8.67;;;8.17;;
1460;SDS011;724;49.910;12.530;2022-07-22T07:29:22;8.37;;;7.93;;
1460;SDS011;724;49.910;12.530;2022-07-22T07:31:49;9.07;;;8.57;;
1460;SDS011;724;49.910;12.530;2022-07-22T07:34:15;8.63;;;8.13;;
1460;SDS011;724;49.910;12.530;2022-07-22T07:36:44;8.67;;;8.17;;
1460;SDS011;724;49.910;12.530;2022-07-22T07:39:10;8.50;;;8.00;;
1460;SDS011;724;49.910;12.530;2022-07-22T07:41:37;8.60;;;8.10;;
1460;SDS011;724;49.910;12.530;2022-07-22T07:44:05;8.83;;;8.33;;
1460;SDS011;724;49.910;12.530;2022-07-22T07:46:32;8.60;;;8.10;;
1460;SDS011;724;49.910;12.530;2022-07-22T07:48:59;9.33;;;8.83;;
1460;SDS011;724;49.910;12.530;2022-07-22T07:51:25;9.00;;;8.50;;
1460;SDS011;724;49.910;12.530;2022-07-22T07:53:56;8.60;;;8.10;;
1460;SDS011;724;49.910;12.530;2022-07-22T07:56:30;8.70;;;8.20;;
1460;SDS011;724;49.910;12.530;2022-07-22T07:59:04;9.03;;;8.53;;
1460;SDS011;724;49.910;12.530;2022-07-22T08:01:36;9.00;;;8.50;;
1460;SDS011;724;49.910;12.530;2022-07-22T08:04:19;8.83;;;8.33;;
1460;SDS011;724;49.910;12.530;2022-07-22T08:06:51;8.70;;;8.20;;
1460;SDS011;724;49.910;12.530;2022-07-22T08:09:22;9.10;;;8.60;;
1460;SDS011;724;49.910;12.530;2022-07-22T08:11:55;9.17;;;8.67;;
1460;SDS011;724;49.910;12.530;2022-07-22T08:14:34;8.90;;;8.40;;
1460;SDS011;724;49.910;12.530;2022-07-22T08:17:06;8.83;;;8.33;;
1460;SDS011;724;49.910;12.530;2022-07-22T08:19:36;9.00;;;8.50;;
1460;SDS011;724;49.910;12.530;2022-07-22T08:22:05;8.97;;;8.47;;
1460;SDS011;724;49.910;12.530;2022-07-22T08:24:40;8.67;;;8.17;;
1460;SDS011;724;49.910;12.530;2022-07-22T08:27:10;8.80;;;8.30;;
1460;SDS011;724;49.910;12.530;2022-07-22T08:29:36;8.73;;;8.23;;
1460;SDS011;724;49.910;12.530;2022-07-22T08:32:03;8.37;;;7.93;;
1460;SDS011;724;49.910;12.530;2022-07-22T08:34:30;9.07;;;8.57;;
1460;SDS011;724;49.910;12.530;2022-07-22T08:36:57;8.93;;;8.43;;
1460;SDS011;724;49.910;12.530;2022-07-22T08:39:24;8.60;;;8.10;;
1460;SDS011;724;49.910;12.530;2022-07-22T08:41:53;8.50;;;8.00;;
1460;SDS011;724;49.910;12.530;2022-07-22T08:44:22;8.93;;;8.43;;
1460;SDS011;724;49.910;12.530;2022-07-22T08:46:49;8.73;;;8.23;;
1460;SDS011;724;49.910;12.530;2022-07-22T08:49:16;9.43;;;8.93;;
1460;SDS011;724;49.910;12.530;2022-07-22T08:51:43;9.10;;;8.60;;
1460;SDS011;724;49.910;12.530;2022-07-22T08:54:09;9.30;;;8.80;;
1460;SDS011;724;49.910;12.530;2022-07-22T08:56:36;9.03;;;8.53;;
1460;SDS011;724;49.910;12.530;2022-07-22T08:59:05;9.13;;;8.63;;
1460;SDS011;724;49.910;12.530;2022-07-22T09:01:32;9.30;;;8.80;;
1460;SDS011;724;49.910;12.530;2022-07-22T09:03:59;9.20;;;8.70;;
1460;SDS011;724;49.910;12.530;2022-07-22T09:06:26;9.30;;;8.80;;
1460;SDS011;724;49.910;12.530;2022-07-22T09:08:59;9.50;;;9.00;;
1460;SDS011;724;49.910;12.530;2022-07-22T09:11:28;8.90;;;8.40;;
1460;SDS011;724;49.910;12.530;2022-07-22T09:13:57;9.40;;;8.90;;
1460;SDS011;724;49.910;12.530;2022-07-22T09:16:44;9.60;;;9.10;;
1460;SDS011;724;49.910;12.530;2022-07-22T09:19:12;9.23;;;8.73;;
1460;SDS011;724;49.910;12.530;2022-07-22T09:21:40;9.20;;;8.70;;
1460;SDS011;724;49.910;12.530;2022-07-22T09:24:12;8.63;;;8.13;;
1460;SDS011;724;49.910;12.530;2022-07-22T09:26:53;9.07;;;8.57;;
1460;SDS011;724;49.910;12.530;2022-07-22T09:29:21;9.23;;;8.73;;
1460;SDS011;724;49.910;12.530;2022-07-22T09:31:50;9.17;;;8.67;;
1460;SDS011;724;49.910;12.530;2022-07-22T09:34:25;9.00;;;8.50;;
1460;SDS011;724;49.910;12.530;2022-07-22T09:36:56;9.60;;;9.10;;
1460;SDS011;724;49.910;12.530;2022-07-22T09:39:27;9.00;;;8.50;;
1460;SDS011;724;49.910;12.530;2022-07-22T09:41:56;9.50;;;9.00;;
1460;SDS011;724;49.910;12.530;2022-07-22T09:44:24;8.93;;;8.43;;
1460;SDS011;724;49.910;12.530;2022-07-22T09:46:52;9.30;;;8.80;;
1460;SDS011;724;49.910;12.530;2022-07-22T09:49:31;8.77;;;8.27;;
1460;SDS011;724;49.910;12.530;2022-07-22T09:52:00;8.60;;;8.10;;
1460;SDS011;724;49.910;12.530;2022-07-22T09:54:28;8.30;;;7.90;;
1460;SDS011;724;49.910;12.530;2022-07-22T09:56:55;8.83;;;8.33;;
1460;SDS011;724;49.910;12.530;2022-07-22T09:59:22;8.37;;;7.93;;
1460;SDS011;724;49.910;12.530;2022-07-22T10:01:50;8.70;;;8.20;;
1460;SDS011;724;49.910;12.530;2022-07-22T10:04:20;8.60;;;8.10;;
1460;SDS011;724;49.910;12.530;2022-07-22T10:06:49;8.57;;;8.07;;
1460;SDS011;724;49.910;12.530;2022-07-22T10:09:17;9.13;;;8.63;;
1460;SDS011;724;49.910;12.530;2022-07-22T10:11:46;8.90;;;8.40;;
1460;SDS011;724;49.910;12.530;2022-07-22T10:14:13;9.10;;;8.60;;
1460;SDS011;724;49.910;12.530;2022-07-22T10:16:41;9.30;;;8.80;;
1460;SDS011;724;49.910;12.530;2022-07-22T10:19:10;8.87;;;8.37;;
1460;SDS011;724;49.910;12.530;2022-07-22T10:21:37;8.80;;;8.30;;
1460;SDS011;724;49.910;12.530;2022-07-22T10:24:08;8.20;;;7.80;;
1460;SDS011;724;49.910;12.530;2022-07-22T10:29:27;8.07;;;7.67;;
1460;SDS011;724;49.910;12.530;2022-07-22T10:37:49;9.03;;;8.53;;
1460;SDS011;724;49.910;12.530;2022-07-22T10:40:20;8.77;;;8.27;;
1460;SDS011;724;49.910;12.530;2022-07-22T10:43:04;8.80;;;8.30;;
1460;SDS011;724;49.910;12.530;2022-07-22T10:45:32;8.93;;;8.43;;
1460;SDS011;724;49.910;12.530;2022-07-22T10:48:03;8.73;;;8.23;;
1460;SDS011;724;49.910;12.530;2022-07-22T10:50:45;8.30;;;7.90;;
1460;SDS011;724;49.910;12.530;2022-07-22T10:53:21;8.70;;;8.20;;
1460;SDS011;724;49.910;12.530;2022-07-22T10:56:01;8.03;;;7.63;;
1460;SDS011;724;49.910;12.530;2022-07-22T10:58:44;8.63;;;8.13;;
1460;SDS011;724;49.910;12.530;2022-07-22T11:01:19;8.50;;;8.00;;
1460;SDS011;724;49.910;12.530;2022-07-22T11:03:48;8.60;;;8.10;;
1460;SDS011;724;49.910;12.530;2022-07-22T11:06:24;8.83;;;8.33;;
1460;SDS011;724;49.910;12.530;2022-07-22T11:08:54;8.43;;;7.97;;
1460;SDS011;724;49.910;12.530;2022-07-22T11:11:32;8.20;;;7.80;;
1460;SDS011;724;49.910;12.530;2022-07-22T11:14:10;8.77;;;8.27;;
1460;SDS011;724;49.910;12.530;2022-07-22T11:16:38;8.30;;;7.90;;
1460;SDS011;724;49.910;12.530;2022-07-22T11:19:05;8.63;;;8.13;;
1460;SDS011;724;49.910;12.530;2022-07-22T11:21:34;8.53;;;8.03;;
1460;SDS011;724;49.910;12.530;2022-07-22T11:24:02;8.80;;;8.30;;
1460;SDS011;724;49.910;12.530;2022-07-22T11:26:34;8.13;;;7.73;;
1460;SDS011;724;49.910;12.530;2022-07-22T11:29:05;8.20;;;7.80;;
1460;SDS011;724;49.910;12.530;2022-07-22T11:31:32;8.10;;;7.70;;
1460;SDS011;724;49.910;12.530;2022-07-22T11:34:06;8.30;;;7.90;;
1460;SDS011;724;49.910;12.530;2022-07-22T11:36:36;7.87;;;7.47;;
1460;SDS011;724;49.910;12.530;2022-07-22T11:39:04;7.63;;;7.23;;
1460;SDS011;724;49.910;12.530;2022-07-22T11:41:31;8.00;;;7.60;;
1460;SDS011;724;49.910;12.530;2022-07-22T11:43:59;7.80;;;7.40;;
1460;SDS011;724;49.910;12.530;2022-07-22T11:46:26;7.93;;;7.53;;
1460;SDS011;724;49.910;12.530;2022-07-22T11:48:54;8.53;;;8.03;;
1460;SDS011;724;49.910;12.530;2022-07-22T11:51:27;7.67;;;7.27;;
1460;SDS011;724;49.910;12.530;2022-07-22T11:53:58;8.07;;;7.67;;
1460;SDS011;724;49.910;12.530;2022-07-22T11:56:25;8.20;;;7.80;;
1460;SDS011;724;49.910;12.530;2022-07-22T11:58:53;8.53;;;8.03;;
1460;SDS011;724;49.910;12.530;2022-07-22T12:01:22;8.57;;;8.07;;
1460;SDS011;724;49.910;12.530;2022-07-22T12:03:51;8.80;;;8.30;;
1460;SDS011;724;49.910;12.530;2022-07-22T12:06:19;8.97;;;8.47;;
1460;SDS011;724;49.910;12.530;2022-07-22T12:08:48;7.87;;;7.47;;
1460;SDS011;724;49.910;12.530;2022-07-22T12:11:18;8.20;;;7.80;;
1460;SDS011;724;49.910;12.530;2022-07-22T12:13:48;8.50;;;8.00;;
1460;SDS011;724;49.910;12.530;2022-07-22T12:16:21;8.93;;;8.43;;
1460;SDS011;724;49.910;12.530;2022-07-22T12:18:53;8.50;;;8.00;;
1460;SDS011;724;49.910;12.530;2022-07-22T12:21:21;8.93;;;8.43;;
1460;SDS011;724;49.910;12.530;2022-07-22T12:23:50;8.90;;;8.40;;
1460;SDS011;724;49.910;12.530;2022-07-22T12:26:19;8.20;;;7.80;;
1460;SDS011;724;49.910;12.530;2022-07-22T12:31:56;8.87;;;8.37;;
1460;SDS011;724;49.910;12.530;2022-07-22T12:34:31;8.60;;;8.10;;
1460;SDS011;724;49.910;12.530;2022-07-22T12:37:00;8.77;;;8.27;;
1460;SDS011;724;49.910;12.530;2022-07-22T12:39:36;8.60;;;8.10;;
1460;SDS011;724;49.910;12.530;2022-07-22T12:42:14;8.93;;;8.43;;
1460;SDS011;724;49.910;12.530;2022-07-22T12:44:49;8.60;;;8.10;;
1460;SDS011;724;49.910;12.530;2022-07-22T12:50:19;8.77;;;8.27;;
1460;SDS011;724;49.910;12.530;2022-07-22T12:52:48;8.90;;;8.40;;
1460;SDS011;724;49.910;12.530;2022-07-22T12:55:15;8.53;;;8.03;;
1460;SDS011;724;49.910;12.530;2022-07-22T12:57:43;9.50;;;9.00;;
1460;SDS011;724;49.910;12.530;2022-07-22T13:00:10;9.27;;;8.77;;
1460;SDS011;724;49.910;12.530;2022-07-22T13:02:42;8.70;;;8.20;;
1460;SDS011;724;49.910;12.530;2022-07-22T13:05:09;8.63;;;8.13;;
1460;SDS011;724;49.910;12.530;2022-07-22T13:07:36;8.10;;;7.70;;
1460;SDS011;724;49.910;12.530;2022-07-22T13:10:03;8.10;;;7.70;;
1460;SDS011;724;49.910;12.530;2022-07-22T13:12:30;8.30;;;7.90;;
1460;SDS011;724;49.910;12.530;2022-07-22T13:14:58;8.20;;;7.80;;
1460;SDS011;724;49.910;12.530;2022-07-22T13:17:25;8.70;;;8.20;;
1460;SDS011;724;49.910;12.530;2022-07-22T13:19:52;7.90;;;7.50;;
1460;SDS011;724;49.910;12.530;2022-07-22T13:22:19;8.60;;;8.10;;
1460;SDS011;724;49.910;12.530;2022-07-22T13:24:45;8.00;;;7.60;;
1460;SDS011;724;49.910;12.530;2022-07-22T13:27:12;7.80;;;7.40;;
1460;SDS011;724;49.910;12.530;2022-07-22T13:29:39;8.37;;;7.93;;
1460;SDS011;724;49.910;12.530;2022-07-22T13:32:07;8.27;;;7.87;;
1460;SDS011;724;49.910;12.530;2022-07-22T13:34:34;8.20;;;7.80;;
1460;SDS011;724;49.910;12.530;2022-07-22T13:37:01;7.90;;;7.50;;
1460;SDS011;724;49.910;12.530;2022-07-22T13:39:27;8.67;;;8.17;;
1460;SDS011;724;49.910;12.530;2022-07-22T13:41:54;7.77;;;7.37;;
1460;SDS011;724;49.910;12.530;2022-07-22T13:44:21;7.73;;;7.33;;
1460;SDS011;724;49.910;12.530;2022-07-22T13:46:48;8.37;;;7.93;;
1460;SDS011;724;49.910;12.530;2022-07-22T13:49:16;8.20;;;7.80;;
1460;SDS011;724;49.910;12.530;2022-07-22T13:51:43;8.07;;;7.67;;
1460;SDS011;724;49.910;12.530;2022-07-22T13:54:10;7.80;;;7.40;;
1460;SDS011;724;49.910;12.530;2022-07-22T13:56:36;8.17;;;7.77;;
1460;SDS011;724;49.910;12.530;2022-07-22T13:59:04;7.50;;;7.10;;
1460;SDS011;724;49.910;12.530;2022-07-22T14:01:31;7.90;;;7.50;;
1460;SDS011;724;49.910;12.530;2022-07-22T14:03:58;8.20;;;7.80;;
1460;SDS011;724;49.910;12.530;2022-07-22T14:06:26;7.50;;;7.10;;
1460;SDS011;724;49.910;12.530;2022-07-22T14:08:53;7.63;;;7.23;;
1460;SDS011;724;49.910;12.530;2022-07-22T14:11:20;7.70;;;7.30;;
1460;SDS011;724;49.910;12.530;2022-07-22T14:13:47;7.90;;;7.50;;
1460;SDS011;724;49.910;12.530;2022-07-22T14:16:13;7.87;;;7.47;;
1460;SDS011;724;49.910;12.530;2022-07-22T14:18:57;7.90;;;7.50;;
1460;SDS011;724;49.910;12.530;2022-07-22T14:21:24;8.07;;;7.67;;
1460;SDS011;724;49.910;12.530;2022-07-22T14:23:53;7.20;;;6.80;;
1460;SDS011;724;49.910;12.530;2022-07-22T14:26:19;8.10;;;7.70;;
1460;SDS011;724;49.910;12.530;2022-07-22T14:28:46;7.70;;;7.30;;
1460;SDS011;724;49.910;12.530;2022-07-22T14:31:13;7.50;;;7.10;;
1460;SDS011;724;49.910;12.530;2022-07-22T14:33:40;7.70;;;7.30;;
1460;SDS011;724;49.910;12.530;2022-07-22T14:36:07;7.90;;;7.50;;
1460;SDS011;724;49.910;12.530;2022-07-22T14:38:34;7.83;;;7.43;;
1460;SDS011;724;49.910;12.530;2022-07-22T14:41:02;7.53;;;7.13;;
1460;SDS011;724;49.910;12.530;2022-07-22T14:43:29;7.90;;;7.50;;
1460;SDS011;724;49.910;12.530;2022-07-22T14:45:56;7.80;;;7.40;;
1460;SDS011;724;49.910;12.530;2022-07-22T14:48:23;8.57;;;8.07;;
1460;SDS011;724;49.910;12.530;2022-07-22T14:50:49;7.60;;;7.20;;
1460;SDS011;724;49.910;12.530;2022-07-22T14:53:16;7.87;;;7.47;;
1460;SDS011;724;49.910;12.530;2022-07-22T14:55:43;7.73;;;7.33;;
1460;SDS011;724;49.910;12.530;2022-07-22T14:58:11;8.10;;;7.70;;
1460;SDS011;724;49.910;12.530;2022-07-22T15:00:37;7.30;;;6.90;;
1460;SDS011;724;49.910;12.530;2022-07-22T15:03:04;7.40;;;7.00;;
1460;SDS011;724;49.910;12.530;2022-07-22T15:05:31;7.50;;;7.10;;
1460;SDS011;724;49.910;12.530;2022-07-22T15:07:58;7.37;;;6.97;;
1460;SDS011;724;49.910;12.530;2022-07-22T15:10:24;7.70;;;7.30;;
1460;SDS011;724;49.910;12.530;2022-07-22T15:12:51;7.60;;;7.20;;
1460;SDS011;724;49.910;12.530;2022-07-22T15:15:19;7.70;;;7.30;;
1460;SDS011;724;49.910;12.530;2022-07-22T15:17:46;8.03;;;7.63;;
1460;SDS011;724;49.910;12.530;2022-07-22T15:20:13;8.00;;;7.60;;
1460;SDS011;724;49.910;12.530;2022-07-22T15:22:39;7.80;;;7.40;;
1460;SDS011;724;49.910;12.530;2022-07-22T15:25:06;7.60;;;7.20;;
1460;SDS011;724;49.910;12.530;2022-07-22T15:27:33;7.87;;;7.47;;
1460;SDS011;724;49.910;12.530;2022-07-22T15:30:03;8.10;;;7.70;;
1460;SDS011;724;49.910;12.530;2022-07-22T15:32:31;8.50;;;8.00;;
1460;SDS011;724;49.910;12.530;2022-07-22T15:34:58;8.30;;;7.90;;
1460;SDS011;724;49.910;12.530;2022-07-22T15:37:25;8.50;;;8.00;;